New Haven, Connecticut
Current Conditions -  °F | °C
As of 2:53 PM on Thursday 30 Oct 2014 (Local Time) from KHVN Reporting Station
Broken Clouds Broken Clouds  
Wind Chill: 61°   Ceiling: 6500
Heat Index: 61°   Visibility: 10mi
Dew Point: 38°   Wind: 9mph
Humidity: 42%   Direction: 290°WNW
Pressure: 29.94"   Gusts: NA
Location:  41.31°N, 72.92°W
Report Text: KHVN 301853Z 29008KT 10SM SCT050 BKN065 16/03 A2994 RMK AO2 SLP138 T01610033
Loading
Personal Weather Stations






























Interactive Weather Map
Tropical Storm Tracking
New forecast layout! Learn more

10-Day Weather Forecast

Advertisements
Track Severe Weather on mobile